<?xml version="1.0" encoding="UTF-8" standalone="no" ?>
<gpx xmlns="http://www.topografix.com/GPX/1/1" xmlns:xsi="http://www.w3.org/2001/XMLSchema-instance" xsi:schemaLocation="http://www.topografix.com/GPX/1/1 http://www.topografix.com/GPX/1/1/gpx.xsd" version="1.1" creator="VisuGPX - https://www.visugpx.com">
  <metadata>
    <name>4 PM col de Faubel à L'Hom par Aigoual</name>
  </metadata>
  <trk>
    <name><![CDATA[10784500-4 Aiguebonne à L'Hom par la Dourbie & l'Aigoual]]></name>
    <trkseg>
      <trkpt lat="44.08871" lon="3.51938">
        <ele>1291</ele>
        <time>2020-01-04T20:39:55Z</time>
      </trkpt>
      <trkpt lat="44.08871" lon="3.5197">
        <ele>1290</ele>
        <time>2020-01-04T20:40:00Z</time>
      </trkpt>
      <trkpt lat="44.08876" lon="3.51977">
        <ele>1291</ele>
        <time>2020-01-04T20:40:02Z</time>
      </trkpt>
      <trkpt lat="44.09009" lon="3.51985">
        <ele>1297</ele>
        <time>2020-01-04T20:40:33Z</time>
      </trkpt>
      <trkpt lat="44.09099" lon="3.51983">
        <ele>1295</ele>
        <time>2020-01-04T20:40:54Z</time>
      </trkpt>
      <trkpt lat="44.09122" lon="3.51992">
        <ele>1294</ele>
        <time>2020-01-04T20:40:59Z</time>
      </trkpt>
      <trkpt lat="44.09168" lon="3.52067">
        <ele>1301</ele>
        <time>2020-01-04T20:41:16Z</time>
      </trkpt>
      <trkpt lat="44.09185" lon="3.5212">
        <ele>1302</ele>
        <time>2020-01-04T20:41:26Z</time>
      </trkpt>
      <trkpt lat="44.09195" lon="3.52159">
        <ele>1302</ele>
        <time>2020-01-04T20:41:33Z</time>
      </trkpt>
      <trkpt lat="44.092" lon="3.52292">
        <ele>1312</ele>
        <time>2020-01-04T20:41:55Z</time>
      </trkpt>
      <trkpt lat="44.09288" lon="3.52329">
        <ele>1303</ele>
        <time>2020-01-04T20:42:16Z</time>
      </trkpt>
      <trkpt lat="44.092" lon="3.52292">
        <ele>1312</ele>
        <time>2020-01-04T20:42:38Z</time>
      </trkpt>
      <trkpt lat="44.09196" lon="3.52165">
        <ele>1303</ele>
        <time>2020-01-04T20:42:59Z</time>
      </trkpt>
      <trkpt lat="44.092" lon="3.52292">
        <ele>1312</ele>
        <time>2020-01-04T20:43:21Z</time>
      </trkpt>
      <trkpt lat="44.09288" lon="3.52329">
        <ele>1303</ele>
        <time>2020-01-04T20:43:42Z</time>
      </trkpt>
      <trkpt lat="44.09301" lon="3.52326">
        <ele>1301</ele>
        <time>2020-01-04T20:43:45Z</time>
      </trkpt>
      <trkpt lat="44.09395" lon="3.52322">
        <ele>1294</ele>
        <time>2020-01-04T20:44:07Z</time>
      </trkpt>
      <trkpt lat="44.09412" lon="3.52318">
        <ele>1293</ele>
        <time>2020-01-04T20:44:11Z</time>
      </trkpt>
      <trkpt lat="44.09434" lon="3.5232">
        <ele>1292</ele>
        <time>2020-01-04T20:44:16Z</time>
      </trkpt>
      <trkpt lat="44.09457" lon="3.52335">
        <ele>1292</ele>
        <time>2020-01-04T20:44:22Z</time>
      </trkpt>
      <trkpt lat="44.09459" lon="3.52344">
        <ele>1291</ele>
        <time>2020-01-04T20:44:24Z</time>
      </trkpt>
      <trkpt lat="44.09453" lon="3.52367">
        <ele>1290</ele>
        <time>2020-01-04T20:44:28Z</time>
      </trkpt>
      <trkpt lat="44.09436" lon="3.52382">
        <ele>1291</ele>
        <time>2020-01-04T20:44:33Z</time>
      </trkpt>
      <trkpt lat="44.09423" lon="3.52386">
        <ele>1293</ele>
        <time>2020-01-04T20:44:36Z</time>
      </trkpt>
      <trkpt lat="44.09408" lon="3.52395">
        <ele>1295</ele>
        <time>2020-01-04T20:44:40Z</time>
      </trkpt>
      <trkpt lat="44.09371" lon="3.52427">
        <ele>1299</ele>
        <time>2020-01-04T20:44:50Z</time>
      </trkpt>
      <trkpt lat="44.09352" lon="3.52451">
        <ele>1303</ele>
        <time>2020-01-04T20:44:56Z</time>
      </trkpt>
      <trkpt lat="44.09352" lon="3.52457">
        <ele>1303</ele>
        <time>2020-01-04T20:44:57Z</time>
      </trkpt>
      <trkpt lat="44.09354" lon="3.52462">
        <ele>1303</ele>
        <time>2020-01-04T20:44:58Z</time>
      </trkpt>
      <trkpt lat="44.09361" lon="3.52468">
        <ele>1301</ele>
        <time>2020-01-04T20:45:00Z</time>
      </trkpt>
      <trkpt lat="44.09427" lon="3.52616">
        <ele>1296</ele>
        <time>2020-01-04T20:45:29Z</time>
      </trkpt>
      <trkpt lat="44.0944" lon="3.52665">
        <ele>1298</ele>
        <time>2020-01-04T20:45:38Z</time>
      </trkpt>
      <trkpt lat="44.09451" lon="3.52691">
        <ele>1299</ele>
        <time>2020-01-04T20:45:43Z</time>
      </trkpt>
      <trkpt lat="44.09464" lon="3.52713">
        <ele>1300</ele>
        <time>2020-01-04T20:45:47Z</time>
      </trkpt>
      <trkpt lat="44.09498" lon="3.52753">
        <ele>1296</ele>
        <time>2020-01-04T20:45:58Z</time>
      </trkpt>
      <trkpt lat="44.09534" lon="3.52788">
        <ele>1293</ele>
        <time>2020-01-04T20:46:08Z</time>
      </trkpt>
      <trkpt lat="44.09556" lon="3.52813">
        <ele>1292</ele>
        <time>2020-01-04T20:46:15Z</time>
      </trkpt>
      <trkpt lat="44.0958" lon="3.52861">
        <ele>1293</ele>
        <time>2020-01-04T20:46:24Z</time>
      </trkpt>
      <trkpt lat="44.09607" lon="3.52931">
        <ele>1294</ele>
        <time>2020-01-04T20:46:38Z</time>
      </trkpt>
      <trkpt lat="44.09614" lon="3.5297">
        <ele>1293</ele>
        <time>2020-01-04T20:46:45Z</time>
      </trkpt>
      <trkpt lat="44.09612" lon="3.52989">
        <ele>1294</ele>
        <time>2020-01-04T20:46:48Z</time>
      </trkpt>
      <trkpt lat="44.09597" lon="3.53022">
        <ele>1294</ele>
        <time>2020-01-04T20:46:54Z</time>
      </trkpt>
      <trkpt lat="44.09552" lon="3.53052">
        <ele>1297</ele>
        <time>2020-01-04T20:47:06Z</time>
      </trkpt>
      <trkpt lat="44.09511" lon="3.53058">
        <ele>1304</ele>
        <time>2020-01-04T20:47:16Z</time>
      </trkpt>
      <trkpt lat="44.095" lon="3.53065">
        <ele>1305</ele>
        <time>2020-01-04T20:47:18Z</time>
      </trkpt>
      <trkpt lat="44.09494" lon="3.53077">
        <ele>1304</ele>
        <time>2020-01-04T20:47:21Z</time>
      </trkpt>
      <trkpt lat="44.09494" lon="3.53086">
        <ele>1304</ele>
        <time>2020-01-04T20:47:22Z</time>
      </trkpt>
      <trkpt lat="44.09515" lon="3.53114">
        <ele>1303</ele>
        <time>2020-01-04T20:47:29Z</time>
      </trkpt>
      <trkpt lat="44.0953" lon="3.53144">
        <ele>1302</ele>
        <time>2020-01-04T20:47:35Z</time>
      </trkpt>
      <trkpt lat="44.0958" lon="3.53195">
        <ele>1295</ele>
        <time>2020-01-04T20:47:50Z</time>
      </trkpt>
      <trkpt lat="44.09592" lon="3.53213">
        <ele>1295</ele>
        <time>2020-01-04T20:47:54Z</time>
      </trkpt>
      <trkpt lat="44.09603" lon="3.53243">
        <ele>1296</ele>
        <time>2020-01-04T20:48:00Z</time>
      </trkpt>
      <trkpt lat="44.09601" lon="3.53281">
        <ele>1298</ele>
        <time>2020-01-04T20:48:06Z</time>
      </trkpt>
      <trkpt lat="44.09595" lon="3.53298">
        <ele>1298</ele>
        <time>2020-01-04T20:48:09Z</time>
      </trkpt>
      <trkpt lat="44.09571" lon="3.53328">
        <ele>1302</ele>
        <time>2020-01-04T20:48:17Z</time>
      </trkpt>
      <trkpt lat="44.09549" lon="3.53361">
        <ele>1307</ele>
        <time>2020-01-04T20:48:24Z</time>
      </trkpt>
      <trkpt lat="44.09547" lon="3.53369">
        <ele>1307</ele>
        <time>2020-01-04T20:48:26Z</time>
      </trkpt>
      <trkpt lat="44.09558" lon="3.53384">
        <ele>1306</ele>
        <time>2020-01-04T20:48:29Z</time>
      </trkpt>
      <trkpt lat="44.09577" lon="3.53395">
        <ele>1304</ele>
        <time>2020-01-04T20:48:34Z</time>
      </trkpt>
      <trkpt lat="44.09592" lon="3.53399">
        <ele>1304</ele>
        <time>2020-01-04T20:48:38Z</time>
      </trkpt>
      <trkpt lat="44.09603" lon="3.53391">
        <ele>1304</ele>
        <time>2020-01-04T20:48:40Z</time>
      </trkpt>
      <trkpt lat="44.09616" lon="3.53365">
        <ele>1302</ele>
        <time>2020-01-04T20:48:46Z</time>
      </trkpt>
      <trkpt lat="44.09629" lon="3.53356">
        <ele>1301</ele>
        <time>2020-01-04T20:48:49Z</time>
      </trkpt>
      <trkpt lat="44.09644" lon="3.53352">
        <ele>1301</ele>
        <time>2020-01-04T20:48:53Z</time>
      </trkpt>
      <trkpt lat="44.09629" lon="3.53356">
        <ele>1301</ele>
        <time>2020-01-04T20:48:56Z</time>
      </trkpt>
      <trkpt lat="44.09616" lon="3.53365">
        <ele>1302</ele>
        <time>2020-01-04T20:49:00Z</time>
      </trkpt>
      <trkpt lat="44.09603" lon="3.53391">
        <ele>1304</ele>
        <time>2020-01-04T20:49:05Z</time>
      </trkpt>
      <trkpt lat="44.09592" lon="3.53399">
        <ele>1304</ele>
        <time>2020-01-04T20:49:08Z</time>
      </trkpt>
      <trkpt lat="44.09577" lon="3.53395">
        <ele>1304</ele>
        <time>2020-01-04T20:49:11Z</time>
      </trkpt>
      <trkpt lat="44.09558" lon="3.53384">
        <ele>1306</ele>
        <time>2020-01-04T20:49:16Z</time>
      </trkpt>
      <trkpt lat="44.09547" lon="3.53369">
        <ele>1307</ele>
        <time>2020-01-04T20:49:20Z</time>
      </trkpt>
      <trkpt lat="44.09549" lon="3.53361">
        <ele>1307</ele>
        <time>2020-01-04T20:49:21Z</time>
      </trkpt>
      <trkpt lat="44.09558" lon="3.53346">
        <ele>1305</ele>
        <time>2020-01-04T20:49:25Z</time>
      </trkpt>
      <trkpt lat="44.09595" lon="3.53298">
        <ele>1298</ele>
        <time>2020-01-04T20:49:36Z</time>
      </trkpt>
      <trkpt lat="44.09601" lon="3.53281">
        <ele>1298</ele>
        <time>2020-01-04T20:49:40Z</time>
      </trkpt>
      <trkpt lat="44.09603" lon="3.53243">
        <ele>1296</ele>
        <time>2020-01-04T20:49:46Z</time>
      </trkpt>
      <trkpt lat="44.09599" lon="3.53228">
        <ele>1295</ele>
        <time>2020-01-04T20:49:49Z</time>
      </trkpt>
      <trkpt lat="44.09588" lon="3.53207">
        <ele>1295</ele>
        <time>2020-01-04T20:49:53Z</time>
      </trkpt>
      <trkpt lat="44.09599" lon="3.53228">
        <ele>1295</ele>
        <time>2020-01-04T20:49:57Z</time>
      </trkpt>
      <trkpt lat="44.09603" lon="3.53243">
        <ele>1296</ele>
        <time>2020-01-04T20:50:00Z</time>
      </trkpt>
      <trkpt lat="44.09601" lon="3.53281">
        <ele>1298</ele>
        <time>2020-01-04T20:50:06Z</time>
      </trkpt>
      <trkpt lat="44.09595" lon="3.53298">
        <ele>1298</ele>
        <time>2020-01-04T20:50:10Z</time>
      </trkpt>
      <trkpt lat="44.09558" lon="3.53346">
        <ele>1305</ele>
        <time>2020-01-04T20:50:21Z</time>
      </trkpt>
      <trkpt lat="44.09549" lon="3.53361">
        <ele>1307</ele>
        <time>2020-01-04T20:50:25Z</time>
      </trkpt>
      <trkpt lat="44.09547" lon="3.53369">
        <ele>1307</ele>
        <time>2020-01-04T20:50:26Z</time>
      </trkpt>
      <trkpt lat="44.09558" lon="3.53384">
        <ele>1306</ele>
        <time>2020-01-04T20:50:30Z</time>
      </trkpt>
      <trkpt lat="44.09577" lon="3.53395">
        <ele>1304</ele>
        <time>2020-01-04T20:50:35Z</time>
      </trkpt>
      <trkpt lat="44.09592" lon="3.53399">
        <ele>1304</ele>
        <time>2020-01-04T20:50:38Z</time>
      </trkpt>
      <trkpt lat="44.09603" lon="3.53391">
        <ele>1304</ele>
        <time>2020-01-04T20:50:41Z</time>
      </trkpt>
      <trkpt lat="44.09616" lon="3.53365">
        <ele>1302</ele>
        <time>2020-01-04T20:50:46Z</time>
      </trkpt>
      <trkpt lat="44.09629" lon="3.53356">
        <ele>1301</ele>
        <time>2020-01-04T20:50:50Z</time>
      </trkpt>
      <trkpt lat="44.09644" lon="3.53352">
        <ele>1301</ele>
        <time>2020-01-04T20:50:53Z</time>
      </trkpt>
      <trkpt lat="44.09657" lon="3.53328">
        <ele>1298</ele>
        <time>2020-01-04T20:50:58Z</time>
      </trkpt>
      <trkpt lat="44.09665" lon="3.5332">
        <ele>1297</ele>
        <time>2020-01-04T20:51:01Z</time>
      </trkpt>
      <trkpt lat="44.09685" lon="3.5329">
        <ele>1296</ele>
        <time>2020-01-04T20:51:07Z</time>
      </trkpt>
      <trkpt lat="44.09715" lon="3.53258">
        <ele>1297</ele>
        <time>2020-01-04T20:51:16Z</time>
      </trkpt>
      <trkpt lat="44.09736" lon="3.53243">
        <ele>1298</ele>
        <time>2020-01-04T20:51:22Z</time>
      </trkpt>
      <trkpt lat="44.09747" lon="3.53232">
        <ele>1298</ele>
        <time>2020-01-04T20:51:25Z</time>
      </trkpt>
      <trkpt lat="44.09773" lon="3.5318">
        <ele>1295</ele>
        <time>2020-01-04T20:51:36Z</time>
      </trkpt>
      <trkpt lat="44.09796" lon="3.53146">
        <ele>1293</ele>
        <time>2020-01-04T20:51:43Z</time>
      </trkpt>
      <trkpt lat="44.0982" lon="3.5314">
        <ele>1295</ele>
        <time>2020-01-04T20:51:49Z</time>
      </trkpt>
      <trkpt lat="44.09833" lon="3.53146">
        <ele>1297</ele>
        <time>2020-01-04T20:51:52Z</time>
      </trkpt>
      <trkpt lat="44.09882" lon="3.53206">
        <ele>1296</ele>
        <time>2020-01-04T20:52:08Z</time>
      </trkpt>
      <trkpt lat="44.09906" lon="3.53262">
        <ele>1295</ele>
        <time>2020-01-04T20:52:18Z</time>
      </trkpt>
      <trkpt lat="44.0991" lon="3.53401">
        <ele>1299</ele>
        <time>2020-01-04T20:52:42Z</time>
      </trkpt>
      <trkpt lat="44.09891" lon="3.53543">
        <ele>1299</ele>
        <time>2020-01-04T20:53:06Z</time>
      </trkpt>
      <trkpt lat="44.09889" lon="3.53577">
        <ele>1300</ele>
        <time>2020-01-04T20:53:12Z</time>
      </trkpt>
      <trkpt lat="44.09893" lon="3.53635">
        <ele>1302</ele>
        <time>2020-01-04T20:53:22Z</time>
      </trkpt>
      <trkpt lat="44.09899" lon="3.53644">
        <ele>1301</ele>
        <time>2020-01-04T20:53:24Z</time>
      </trkpt>
      <trkpt lat="44.09908" lon="3.53648">
        <ele>1300</ele>
        <time>2020-01-04T20:53:26Z</time>
      </trkpt>
      <trkpt lat="44.09921" lon="3.53646">
        <ele>1300</ele>
        <time>2020-01-04T20:53:29Z</time>
      </trkpt>
      <trkpt lat="44.09921" lon="3.53639">
        <ele>1300</ele>
        <time>2020-01-04T20:53:30Z</time>
      </trkpt>
      <trkpt lat="44.09923" lon="3.53645">
        <ele>1300</ele>
        <time>2020-01-04T20:53:31Z</time>
      </trkpt>
      <trkpt lat="44.09929" lon="3.5364">
        <ele>1301</ele>
        <time>2020-01-04T20:53:33Z</time>
      </trkpt>
      <trkpt lat="44.09936" lon="3.53627">
        <ele>1302</ele>
        <time>2020-01-04T20:53:35Z</time>
      </trkpt>
      <trkpt lat="44.09944" lon="3.53597">
        <ele>1302</ele>
        <time>2020-01-04T20:53:41Z</time>
      </trkpt>
      <trkpt lat="44.09966" lon="3.53539">
        <ele>1302</ele>
        <time>2020-01-04T20:53:52Z</time>
      </trkpt>
      <trkpt lat="44.09992" lon="3.5341">
        <ele>1298</ele>
        <time>2020-01-04T20:54:14Z</time>
      </trkpt>
      <trkpt lat="44.10009" lon="3.53354">
        <ele>1295</ele>
        <time>2020-01-04T20:54:25Z</time>
      </trkpt>
      <trkpt lat="44.10017" lon="3.53337">
        <ele>1295</ele>
        <time>2020-01-04T20:54:28Z</time>
      </trkpt>
      <trkpt lat="44.10039" lon="3.53307">
        <ele>1296</ele>
        <time>2020-01-04T20:54:35Z</time>
      </trkpt>
      <trkpt lat="44.10114" lon="3.53238">
        <ele>1298</ele>
        <time>2020-01-04T20:54:56Z</time>
      </trkpt>
      <trkpt lat="44.1014" lon="3.5324">
        <ele>1298</ele>
        <time>2020-01-04T20:55:02Z</time>
      </trkpt>
      <trkpt lat="44.10167" lon="3.53258">
        <ele>1299</ele>
        <time>2020-01-04T20:55:09Z</time>
      </trkpt>
      <trkpt lat="44.10174" lon="3.53268">
        <ele>1299</ele>
        <time>2020-01-04T20:55:12Z</time>
      </trkpt>
      <trkpt lat="44.10195" lon="3.53337">
        <ele>1300</ele>
        <time>2020-01-04T20:55:24Z</time>
      </trkpt>
      <trkpt lat="44.10223" lon="3.53468">
        <ele>1297</ele>
        <time>2020-01-04T20:55:47Z</time>
      </trkpt>
      <trkpt lat="44.10238" lon="3.53691">
        <ele>1303</ele>
        <time>2020-01-04T20:56:25Z</time>
      </trkpt>
      <trkpt lat="44.10238" lon="3.53734">
        <ele>1303</ele>
        <time>2020-01-04T20:56:32Z</time>
      </trkpt>
      <trkpt lat="44.10249" lon="3.53794">
        <ele>1301</ele>
        <time>2020-01-04T20:56:42Z</time>
      </trkpt>
      <trkpt lat="44.10266" lon="3.53856">
        <ele>1297</ele>
        <time>2020-01-04T20:56:53Z</time>
      </trkpt>
      <trkpt lat="44.10266" lon="3.53878">
        <ele>1299</ele>
        <time>2020-01-04T20:56:57Z</time>
      </trkpt>
      <trkpt lat="44.1027" lon="3.53901">
        <ele>1299</ele>
        <time>2020-01-04T20:57:01Z</time>
      </trkpt>
      <trkpt lat="44.1029" lon="3.53994">
        <ele>1305</ele>
        <time>2020-01-04T20:57:17Z</time>
      </trkpt>
      <trkpt lat="44.10298" lon="3.54049">
        <ele>1307</ele>
        <time>2020-01-04T20:57:27Z</time>
      </trkpt>
      <trkpt lat="44.10303" lon="3.54105">
        <ele>1307</ele>
        <time>2020-01-04T20:57:36Z</time>
      </trkpt>
      <trkpt lat="44.10311" lon="3.54103">
        <ele>1306</ele>
        <time>2020-01-04T20:57:38Z</time>
      </trkpt>
      <trkpt lat="44.10331" lon="3.5411">
        <ele>1303</ele>
        <time>2020-01-04T20:57:43Z</time>
      </trkpt>
      <trkpt lat="44.10365" lon="3.54129">
        <ele>1307</ele>
        <time>2020-01-04T20:57:51Z</time>
      </trkpt>
      <trkpt lat="44.10412" lon="3.5415">
        <ele>1317</ele>
        <time>2020-01-04T20:58:03Z</time>
      </trkpt>
      <trkpt lat="44.10487" lon="3.54178">
        <ele>1337</ele>
        <time>2020-01-04T20:58:21Z</time>
      </trkpt>
      <trkpt lat="44.10528" lon="3.54198">
        <ele>1347</ele>
        <time>2020-01-04T20:58:31Z</time>
      </trkpt>
      <trkpt lat="44.10665" lon="3.54228">
        <ele>1364</ele>
        <time>2020-01-04T20:59:04Z</time>
      </trkpt>
      <trkpt lat="44.10732" lon="3.54255">
        <ele>1370</ele>
        <time>2020-01-04T20:59:20Z</time>
      </trkpt>
      <trkpt lat="44.10768" lon="3.54273">
        <ele>1374</ele>
        <time>2020-01-04T20:59:29Z</time>
      </trkpt>
      <trkpt lat="44.10803" lon="3.54303">
        <ele>1379</ele>
        <time>2020-01-04T20:59:38Z</time>
      </trkpt>
      <trkpt lat="44.10852" lon="3.54324">
        <ele>1383</ele>
        <time>2020-01-04T20:59:50Z</time>
      </trkpt>
      <trkpt lat="44.10865" lon="3.54324">
        <ele>1384</ele>
        <time>2020-01-04T20:59:53Z</time>
      </trkpt>
      <trkpt lat="44.10891" lon="3.54348">
        <ele>1386</ele>
        <time>2020-01-04T21:00:01Z</time>
      </trkpt>
      <trkpt lat="44.10884" lon="3.54361">
        <ele>1385</ele>
        <time>2020-01-04T21:00:03Z</time>
      </trkpt>
      <trkpt lat="44.10959" lon="3.54364">
        <ele>1393</ele>
        <time>2020-01-04T21:00:21Z</time>
      </trkpt>
      <trkpt lat="44.11024" lon="3.54462">
        <ele>1400</ele>
        <time>2020-01-04T21:00:43Z</time>
      </trkpt>
      <trkpt lat="44.11072" lon="3.54512">
        <ele>1405</ele>
        <time>2020-01-04T21:00:57Z</time>
      </trkpt>
      <trkpt lat="44.11137" lon="3.54536">
        <ele>1408</ele>
        <time>2020-01-04T21:01:13Z</time>
      </trkpt>
      <trkpt lat="44.11183" lon="3.54548">
        <ele>1408</ele>
        <time>2020-01-04T21:01:24Z</time>
      </trkpt>
      <trkpt lat="44.1125" lon="3.54559">
        <ele>1408</ele>
        <time>2020-01-04T21:01:40Z</time>
      </trkpt>
      <trkpt lat="44.11328" lon="3.54544">
        <ele>1414</ele>
        <time>2020-01-04T21:01:58Z</time>
      </trkpt>
      <trkpt lat="44.11374" lon="3.54559">
        <ele>1413</ele>
        <time>2020-01-04T21:02:09Z</time>
      </trkpt>
      <trkpt lat="44.11439" lon="3.54618">
        <ele>1413</ele>
        <time>2020-01-04T21:02:27Z</time>
      </trkpt>
      <trkpt lat="44.11476" lon="3.54731">
        <ele>1414</ele>
        <time>2020-01-04T21:02:48Z</time>
      </trkpt>
      <trkpt lat="44.1152" lon="3.54828">
        <ele>1410</ele>
        <time>2020-01-04T21:03:07Z</time>
      </trkpt>
      <trkpt lat="44.11568" lon="3.54918">
        <ele>1404</ele>
        <time>2020-01-04T21:03:26Z</time>
      </trkpt>
      <trkpt lat="44.11625" lon="3.54984">
        <ele>1407</ele>
        <time>2020-01-04T21:03:43Z</time>
      </trkpt>
      <trkpt lat="44.11633" lon="3.55047">
        <ele>1409</ele>
        <time>2020-01-04T21:03:54Z</time>
      </trkpt>
      <trkpt lat="44.1166" lon="3.55129">
        <ele>1413</ele>
        <time>2020-01-04T21:04:09Z</time>
      </trkpt>
      <trkpt lat="44.11681" lon="3.55296">
        <ele>1412</ele>
        <time>2020-01-04T21:04:38Z</time>
      </trkpt>
      <trkpt lat="44.11697" lon="3.55359">
        <ele>1412</ele>
        <time>2020-01-04T21:04:49Z</time>
      </trkpt>
      <trkpt lat="44.11732" lon="3.55429">
        <ele>1413</ele>
        <time>2020-01-04T21:05:03Z</time>
      </trkpt>
      <trkpt lat="44.11743" lon="3.5546">
        <ele>1415</ele>
        <time>2020-01-04T21:05:09Z</time>
      </trkpt>
      <trkpt lat="44.11712" lon="3.55517">
        <ele>1416</ele>
        <time>2020-01-04T21:05:21Z</time>
      </trkpt>
      <trkpt lat="44.11726" lon="3.55513">
        <ele>1417</ele>
        <time>2020-01-04T21:05:24Z</time>
      </trkpt>
      <trkpt lat="44.11727" lon="3.5554">
        <ele>1417</ele>
        <time>2020-01-04T21:05:29Z</time>
      </trkpt>
      <trkpt lat="44.11714" lon="3.55558">
        <ele>1416</ele>
        <time>2020-01-04T21:05:33Z</time>
      </trkpt>
      <trkpt lat="44.11708" lon="3.55597">
        <ele>1415</ele>
        <time>2020-01-04T21:05:40Z</time>
      </trkpt>
      <trkpt lat="44.1172" lon="3.55646">
        <ele>1415</ele>
        <time>2020-01-04T21:05:48Z</time>
      </trkpt>
      <trkpt lat="44.11754" lon="3.55677">
        <ele>1418</ele>
        <time>2020-01-04T21:05:58Z</time>
      </trkpt>
      <trkpt lat="44.11769" lon="3.55759">
        <ele>1417</ele>
        <time>2020-01-04T21:06:12Z</time>
      </trkpt>
      <trkpt lat="44.11797" lon="3.55788">
        <ele>1420</ele>
        <time>2020-01-04T21:06:20Z</time>
      </trkpt>
      <trkpt lat="44.11813" lon="3.55887">
        <ele>1424</ele>
        <time>2020-01-04T21:06:37Z</time>
      </trkpt>
      <trkpt lat="44.11838" lon="3.55938">
        <ele>1430</ele>
        <time>2020-01-04T21:06:48Z</time>
      </trkpt>
      <trkpt lat="44.11832" lon="3.55981">
        <ele>1430</ele>
        <time>2020-01-04T21:06:55Z</time>
      </trkpt>
      <trkpt lat="44.11882" lon="3.56043">
        <ele>1436</ele>
        <time>2020-01-04T21:07:11Z</time>
      </trkpt>
      <trkpt lat="44.1189" lon="3.56067">
        <ele>1437</ele>
        <time>2020-01-04T21:07:15Z</time>
      </trkpt>
      <trkpt lat="44.11974" lon="3.56192">
        <ele>1443</ele>
        <time>2020-01-04T21:07:44Z</time>
      </trkpt>
      <trkpt lat="44.11983" lon="3.56223">
        <ele>1443</ele>
        <time>2020-01-04T21:07:49Z</time>
      </trkpt>
      <trkpt lat="44.11983" lon="3.56252">
        <ele>1441</ele>
        <time>2020-01-04T21:07:54Z</time>
      </trkpt>
      <trkpt lat="44.11987" lon="3.56287">
        <ele>1440</ele>
        <time>2020-01-04T21:08:00Z</time>
      </trkpt>
      <trkpt lat="44.12007" lon="3.56301">
        <ele>1443</ele>
        <time>2020-01-04T21:08:05Z</time>
      </trkpt>
      <trkpt lat="44.12032" lon="3.56313">
        <ele>1447</ele>
        <time>2020-01-04T21:08:12Z</time>
      </trkpt>
      <trkpt lat="44.12069" lon="3.56348">
        <ele>1453</ele>
        <time>2020-01-04T21:08:22Z</time>
      </trkpt>
      <trkpt lat="44.12102" lon="3.56393">
        <ele>1456</ele>
        <time>2020-01-04T21:08:33Z</time>
      </trkpt>
      <trkpt lat="44.12116" lon="3.56481">
        <ele>1460</ele>
        <time>2020-01-04T21:08:48Z</time>
      </trkpt>
      <trkpt lat="44.12104" lon="3.56502">
        <ele>1457</ele>
        <time>2020-01-04T21:08:52Z</time>
      </trkpt>
      <trkpt lat="44.12079" lon="3.5651">
        <ele>1452</ele>
        <time>2020-01-04T21:08:58Z</time>
      </trkpt>
      <trkpt lat="44.12058" lon="3.5653">
        <ele>1451</ele>
        <time>2020-01-04T21:09:04Z</time>
      </trkpt>
      <trkpt lat="44.12041" lon="3.56553">
        <ele>1450</ele>
        <time>2020-01-04T21:09:10Z</time>
      </trkpt>
      <trkpt lat="44.12031" lon="3.56787">
        <ele>1471</ele>
        <time>2020-01-04T21:09:49Z</time>
      </trkpt>
      <trkpt lat="44.12044" lon="3.5683">
        <ele>1479</ele>
        <time>2020-01-04T21:09:57Z</time>
      </trkpt>
      <trkpt lat="44.12064" lon="3.56875">
        <ele>1492</ele>
        <time>2020-01-04T21:10:06Z</time>
      </trkpt>
      <trkpt lat="44.11983" lon="3.56945">
        <ele>1488</ele>
        <time>2020-01-04T21:10:28Z</time>
      </trkpt>
      <trkpt lat="44.1196" lon="3.56986">
        <ele>1493</ele>
        <time>2020-01-04T21:10:37Z</time>
      </trkpt>
      <trkpt lat="44.11941" lon="3.57033">
        <ele>1497</ele>
        <time>2020-01-04T21:10:46Z</time>
      </trkpt>
      <trkpt lat="44.11913" lon="3.57152">
        <ele>1508</ele>
        <time>2020-01-04T21:11:07Z</time>
      </trkpt>
      <trkpt lat="44.11905" lon="3.57232">
        <ele>1513</ele>
        <time>2020-01-04T21:11:20Z</time>
      </trkpt>
      <trkpt lat="44.11914" lon="3.57286">
        <ele>1515</ele>
        <time>2020-01-04T21:11:30Z</time>
      </trkpt>
      <trkpt lat="44.11932" lon="3.57333">
        <ele>1519</ele>
        <time>2020-01-04T21:11:39Z</time>
      </trkpt>
      <trkpt lat="44.11949" lon="3.57366">
        <ele>1520</ele>
        <time>2020-01-04T21:11:45Z</time>
      </trkpt>
      <trkpt lat="44.11968" lon="3.57396">
        <ele>1522</ele>
        <time>2020-01-04T21:11:52Z</time>
      </trkpt>
      <trkpt lat="44.11998" lon="3.57423">
        <ele>1528</ele>
        <time>2020-01-04T21:12:01Z</time>
      </trkpt>
      <trkpt lat="44.12017" lon="3.57444">
        <ele>1532</ele>
        <time>2020-01-04T21:12:06Z</time>
      </trkpt>
      <trkpt lat="44.12033" lon="3.57468">
        <ele>1535</ele>
        <time>2020-01-04T21:12:12Z</time>
      </trkpt>
      <trkpt lat="44.12045" lon="3.57505">
        <ele>1539</ele>
        <time>2020-01-04T21:12:19Z</time>
      </trkpt>
      <trkpt lat="44.12052" lon="3.5755">
        <ele>1539</ele>
        <time>2020-01-04T21:12:26Z</time>
      </trkpt>
      <trkpt lat="44.12061" lon="3.57643">
        <ele>1541</ele>
        <time>2020-01-04T21:12:42Z</time>
      </trkpt>
      <trkpt lat="44.12058" lon="3.57698">
        <ele>1542</ele>
        <time>2020-01-04T21:12:51Z</time>
      </trkpt>
      <trkpt lat="44.12057" lon="3.57799">
        <ele>1544</ele>
        <time>2020-01-04T21:13:08Z</time>
      </trkpt>
      <trkpt lat="44.12066" lon="3.57823">
        <ele>1547</ele>
        <time>2020-01-04T21:13:13Z</time>
      </trkpt>
      <trkpt lat="44.12091" lon="3.57846">
        <ele>1553</ele>
        <time>2020-01-04T21:13:20Z</time>
      </trkpt>
      <trkpt lat="44.12114" lon="3.57887">
        <ele>1552</ele>
        <time>2020-01-04T21:13:28Z</time>
      </trkpt>
      <trkpt lat="44.12134" lon="3.57755">
        <ele>1556</ele>
        <time>2020-01-04T21:13:51Z</time>
      </trkpt>
      <trkpt lat="44.12155" lon="3.57714">
        <ele>1557</ele>
        <time>2020-01-04T21:13:59Z</time>
      </trkpt>
      <trkpt lat="44.12164" lon="3.57267">
        <ele>1551</ele>
        <time>2020-01-04T21:15:14Z</time>
      </trkpt>
      <trkpt lat="44.12192" lon="3.57148">
        <ele>1545</ele>
        <time>2020-01-04T21:15:35Z</time>
      </trkpt>
      <trkpt lat="44.12204" lon="3.57084">
        <ele>1543</ele>
        <time>2020-01-04T21:15:47Z</time>
      </trkpt>
      <trkpt lat="44.12228" lon="3.5702">
        <ele>1541</ele>
        <time>2020-01-04T21:15:59Z</time>
      </trkpt>
      <trkpt lat="44.12244" lon="3.57003">
        <ele>1542</ele>
        <time>2020-01-04T21:16:03Z</time>
      </trkpt>
      <trkpt lat="44.12257" lon="3.57">
        <ele>1542</ele>
        <time>2020-01-04T21:16:06Z</time>
      </trkpt>
      <trkpt lat="44.12296" lon="3.57026">
        <ele>1540</ele>
        <time>2020-01-04T21:16:16Z</time>
      </trkpt>
      <trkpt lat="44.12313" lon="3.5703">
        <ele>1539</ele>
        <time>2020-01-04T21:16:21Z</time>
      </trkpt>
      <trkpt lat="44.12326" lon="3.57028">
        <ele>1538</ele>
        <time>2020-01-04T21:16:24Z</time>
      </trkpt>
      <trkpt lat="44.12337" lon="3.57032">
        <ele>1538</ele>
        <time>2020-01-04T21:16:26Z</time>
      </trkpt>
      <trkpt lat="44.12373" lon="3.57026">
        <ele>1536</ele>
        <time>2020-01-04T21:16:35Z</time>
      </trkpt>
      <trkpt lat="44.12461" lon="3.57021">
        <ele>1532</ele>
        <time>2020-01-04T21:16:55Z</time>
      </trkpt>
      <trkpt lat="44.12517" lon="3.57021">
        <ele>1530</ele>
        <time>2020-01-04T21:17:08Z</time>
      </trkpt>
      <trkpt lat="44.12571" lon="3.57008">
        <ele>1529</ele>
        <time>2020-01-04T21:17:21Z</time>
      </trkpt>
      <trkpt lat="44.12624" lon="3.57">
        <ele>1524</ele>
        <time>2020-01-04T21:17:34Z</time>
      </trkpt>
      <trkpt lat="44.12687" lon="3.57036">
        <ele>1520</ele>
        <time>2020-01-04T21:17:49Z</time>
      </trkpt>
      <trkpt lat="44.1273" lon="3.57045">
        <ele>1519</ele>
        <time>2020-01-04T21:18:00Z</time>
      </trkpt>
      <trkpt lat="44.12757" lon="3.57043">
        <ele>1518</ele>
        <time>2020-01-04T21:18:06Z</time>
      </trkpt>
      <trkpt lat="44.12841" lon="3.57017">
        <ele>1515</ele>
        <time>2020-01-04T21:18:26Z</time>
      </trkpt>
      <trkpt lat="44.12882" lon="3.57">
        <ele>1515</ele>
        <time>2020-01-04T21:18:36Z</time>
      </trkpt>
      <trkpt lat="44.12959" lon="3.56961">
        <ele>1512</ele>
        <time>2020-01-04T21:18:55Z</time>
      </trkpt>
      <trkpt lat="44.13004" lon="3.56933">
        <ele>1510</ele>
        <time>2020-01-04T21:19:07Z</time>
      </trkpt>
      <trkpt lat="44.13015" lon="3.56916">
        <ele>1508</ele>
        <time>2020-01-04T21:19:11Z</time>
      </trkpt>
      <trkpt lat="44.13043" lon="3.56893">
        <ele>1510</ele>
        <time>2020-01-04T21:19:18Z</time>
      </trkpt>
      <trkpt lat="44.13047" lon="3.56884">
        <ele>1510</ele>
        <time>2020-01-04T21:19:20Z</time>
      </trkpt>
      <trkpt lat="44.13064" lon="3.56813">
        <ele>1507</ele>
        <time>2020-01-04T21:19:32Z</time>
      </trkpt>
      <trkpt lat="44.13084" lon="3.56714">
        <ele>1508</ele>
        <time>2020-01-04T21:19:50Z</time>
      </trkpt>
      <trkpt lat="44.13096" lon="3.56676">
        <ele>1508</ele>
        <time>2020-01-04T21:19:57Z</time>
      </trkpt>
      <trkpt lat="44.13116" lon="3.56639">
        <ele>1507</ele>
        <time>2020-01-04T21:20:04Z</time>
      </trkpt>
      <trkpt lat="44.13165" lon="3.56569">
        <ele>1508</ele>
        <time>2020-01-04T21:20:21Z</time>
      </trkpt>
      <trkpt lat="44.13204" lon="3.56528">
        <ele>1507</ele>
        <time>2020-01-04T21:20:32Z</time>
      </trkpt>
      <trkpt lat="44.13234" lon="3.56489">
        <ele>1504</ele>
        <time>2020-01-04T21:20:42Z</time>
      </trkpt>
      <trkpt lat="44.13296" lon="3.56474">
        <ele>1502</ele>
        <time>2020-01-04T21:20:56Z</time>
      </trkpt>
      <trkpt lat="44.13345" lon="3.56474">
        <ele>1502</ele>
        <time>2020-01-04T21:21:08Z</time>
      </trkpt>
      <trkpt lat="44.13393" lon="3.5647">
        <ele>1504</ele>
        <time>2020-01-04T21:21:19Z</time>
      </trkpt>
      <trkpt lat="44.13442" lon="3.5644">
        <ele>1502</ele>
        <time>2020-01-04T21:21:32Z</time>
      </trkpt>
      <trkpt lat="44.13459" lon="3.56433">
        <ele>1502</ele>
        <time>2020-01-04T21:21:36Z</time>
      </trkpt>
      <trkpt lat="44.13483" lon="3.56444">
        <ele>1504</ele>
        <time>2020-01-04T21:21:42Z</time>
      </trkpt>
      <trkpt lat="44.13584" lon="3.56506">
        <ele>1505</ele>
        <time>2020-01-04T21:22:07Z</time>
      </trkpt>
      <trkpt lat="44.13588" lon="3.56515">
        <ele>1506</ele>
        <time>2020-01-04T21:22:09Z</time>
      </trkpt>
      <trkpt lat="44.13614" lon="3.56517">
        <ele>1504</ele>
        <time>2020-01-04T21:22:15Z</time>
      </trkpt>
      <trkpt lat="44.13645" lon="3.56527">
        <ele>1503</ele>
        <time>2020-01-04T21:22:23Z</time>
      </trkpt>
      <trkpt lat="44.13644" lon="3.56534">
        <ele>1505</ele>
        <time>2020-01-04T21:22:24Z</time>
      </trkpt>
      <trkpt lat="44.13645" lon="3.56527">
        <ele>1503</ele>
        <time>2020-01-04T21:22:25Z</time>
      </trkpt>
      <trkpt lat="44.13676" lon="3.56543">
        <ele>1504</ele>
        <time>2020-01-04T21:22:33Z</time>
      </trkpt>
      <trkpt lat="44.13721" lon="3.5656">
        <ele>1505</ele>
        <time>2020-01-04T21:22:44Z</time>
      </trkpt>
      <trkpt lat="44.13811" lon="3.56586">
        <ele>1507</ele>
        <time>2020-01-04T21:23:05Z</time>
      </trkpt>
      <trkpt lat="44.13877" lon="3.56622">
        <ele>1506</ele>
        <time>2020-01-04T21:23:22Z</time>
      </trkpt>
      <trkpt lat="44.13929" lon="3.56642">
        <ele>1502</ele>
        <time>2020-01-04T21:23:34Z</time>
      </trkpt>
      <trkpt lat="44.13998" lon="3.56648">
        <ele>1493</ele>
        <time>2020-01-04T21:23:50Z</time>
      </trkpt>
      <trkpt lat="44.14045" lon="3.56635">
        <ele>1489</ele>
        <time>2020-01-04T21:24:02Z</time>
      </trkpt>
      <trkpt lat="44.14064" lon="3.56618">
        <ele>1484</ele>
        <time>2020-01-04T21:24:07Z</time>
      </trkpt>
      <trkpt lat="44.14096" lon="3.56603">
        <ele>1480</ele>
        <time>2020-01-04T21:24:15Z</time>
      </trkpt>
      <trkpt lat="44.14118" lon="3.56599">
        <ele>1478</ele>
        <time>2020-01-04T21:24:20Z</time>
      </trkpt>
      <trkpt lat="44.14189" lon="3.56573">
        <ele>1467</ele>
        <time>2020-01-04T21:24:37Z</time>
      </trkpt>
      <trkpt lat="44.14272" lon="3.56468">
        <ele>1438</ele>
        <time>2020-01-04T21:25:03Z</time>
      </trkpt>
      <trkpt lat="44.14289" lon="3.56463">
        <ele>1435</ele>
        <time>2020-01-04T21:25:07Z</time>
      </trkpt>
      <trkpt lat="44.1433" lon="3.5644">
        <ele>1429</ele>
        <time>2020-01-04T21:25:18Z</time>
      </trkpt>
      <trkpt lat="44.14365" lon="3.56395">
        <ele>1419</ele>
        <time>2020-01-04T21:25:29Z</time>
      </trkpt>
      <trkpt lat="44.14375" lon="3.56386">
        <ele>1417</ele>
        <time>2020-01-04T21:25:32Z</time>
      </trkpt>
      <trkpt lat="44.14386" lon="3.5638">
        <ele>1416</ele>
        <time>2020-01-04T21:25:34Z</time>
      </trkpt>
      <trkpt lat="44.14435" lon="3.56337">
        <ele>1411</ele>
        <time>2020-01-04T21:25:48Z</time>
      </trkpt>
      <trkpt lat="44.14457" lon="3.56322">
        <ele>1407</ele>
        <time>2020-01-04T21:25:54Z</time>
      </trkpt>
      <trkpt lat="44.14485" lon="3.56294">
        <ele>1404</ele>
        <time>2020-01-04T21:26:02Z</time>
      </trkpt>
      <trkpt lat="44.145" lon="3.56287">
        <ele>1403</ele>
        <time>2020-01-04T21:26:05Z</time>
      </trkpt>
      <trkpt lat="44.14562" lon="3.56249">
        <ele>1407</ele>
        <time>2020-01-04T21:26:21Z</time>
      </trkpt>
      <trkpt lat="44.14613" lon="3.56191">
        <ele>1410</ele>
        <time>2020-01-04T21:26:37Z</time>
      </trkpt>
      <trkpt lat="44.14656" lon="3.56152">
        <ele>1416</ele>
        <time>2020-01-04T21:26:49Z</time>
      </trkpt>
      <trkpt lat="44.14708" lon="3.56118">
        <ele>1420</ele>
        <time>2020-01-04T21:27:02Z</time>
      </trkpt>
      <trkpt lat="44.14725" lon="3.56094">
        <ele>1423</ele>
        <time>2020-01-04T21:27:08Z</time>
      </trkpt>
      <trkpt lat="44.14736" lon="3.56049">
        <ele>1422</ele>
        <time>2020-01-04T21:27:16Z</time>
      </trkpt>
      <trkpt lat="44.14757" lon="3.56004">
        <ele>1424</ele>
        <time>2020-01-04T21:27:25Z</time>
      </trkpt>
      <trkpt lat="44.1477" lon="3.55983">
        <ele>1425</ele>
        <time>2020-01-04T21:27:29Z</time>
      </trkpt>
      <trkpt lat="44.14785" lon="3.55938">
        <ele>1423</ele>
        <time>2020-01-04T21:27:38Z</time>
      </trkpt>
      <trkpt lat="44.14804" lon="3.55903">
        <ele>1422</ele>
        <time>2020-01-04T21:27:45Z</time>
      </trkpt>
      <trkpt lat="44.14839" lon="3.55873">
        <ele>1422</ele>
        <time>2020-01-04T21:27:54Z</time>
      </trkpt>
      <trkpt lat="44.14912" lon="3.55818">
        <ele>1427</ele>
        <time>2020-01-04T21:28:14Z</time>
      </trkpt>
      <trkpt lat="44.14946" lon="3.55796">
        <ele>1429</ele>
        <time>2020-01-04T21:28:23Z</time>
      </trkpt>
      <trkpt lat="44.14968" lon="3.55785">
        <ele>1430</ele>
        <time>2020-01-04T21:28:28Z</time>
      </trkpt>
      <trkpt lat="44.14991" lon="3.55777">
        <ele>1433</ele>
        <time>2020-01-04T21:28:34Z</time>
      </trkpt>
      <trkpt lat="44.15043" lon="3.55764">
        <ele>1438</ele>
        <time>2020-01-04T21:28:46Z</time>
      </trkpt>
      <trkpt lat="44.15079" lon="3.55745">
        <ele>1440</ele>
        <time>2020-01-04T21:28:55Z</time>
      </trkpt>
      <trkpt lat="44.15107" lon="3.5571">
        <ele>1435</ele>
        <time>2020-01-04T21:29:04Z</time>
      </trkpt>
      <trkpt lat="44.15128" lon="3.55678">
        <ele>1430</ele>
        <time>2020-01-04T21:29:11Z</time>
      </trkpt>
      <trkpt lat="44.15159" lon="3.55652">
        <ele>1429</ele>
        <time>2020-01-04T21:29:19Z</time>
      </trkpt>
      <trkpt lat="44.15171" lon="3.55646">
        <ele>1428</ele>
        <time>2020-01-04T21:29:22Z</time>
      </trkpt>
      <trkpt lat="44.15206" lon="3.55637">
        <ele>1426</ele>
        <time>2020-01-04T21:29:31Z</time>
      </trkpt>
      <trkpt lat="44.15292" lon="3.55635">
        <ele>1432</ele>
        <time>2020-01-04T21:29:51Z</time>
      </trkpt>
      <trkpt lat="44.15315" lon="3.55631">
        <ele>1433</ele>
        <time>2020-01-04T21:29:56Z</time>
      </trkpt>
      <trkpt lat="44.15343" lon="3.55616">
        <ele>1435</ele>
        <time>2020-01-04T21:30:03Z</time>
      </trkpt>
      <trkpt lat="44.15369" lon="3.55586">
        <ele>1436</ele>
        <time>2020-01-04T21:30:11Z</time>
      </trkpt>
      <trkpt lat="44.15382" lon="3.55554">
        <ele>1436</ele>
        <time>2020-01-04T21:30:17Z</time>
      </trkpt>
      <trkpt lat="44.15388" lon="3.55534">
        <ele>1435</ele>
        <time>2020-01-04T21:30:21Z</time>
      </trkpt>
      <trkpt lat="44.15397" lon="3.55476">
        <ele>1432</ele>
        <time>2020-01-04T21:30:31Z</time>
      </trkpt>
      <trkpt lat="44.15397" lon="3.55455">
        <ele>1429</ele>
        <time>2020-01-04T21:30:34Z</time>
      </trkpt>
      <trkpt lat="44.15401" lon="3.55429">
        <ele>1428</ele>
        <time>2020-01-04T21:30:39Z</time>
      </trkpt>
      <trkpt lat="44.1541" lon="3.5541">
        <ele>1429</ele>
        <time>2020-01-04T21:30:43Z</time>
      </trkpt>
      <trkpt lat="44.1542" lon="3.55399">
        <ele>1430</ele>
        <time>2020-01-04T21:30:46Z</time>
      </trkpt>
      <trkpt lat="44.15435" lon="3.55388">
        <ele>1430</ele>
        <time>2020-01-04T21:30:50Z</time>
      </trkpt>
      <trkpt lat="44.1545" lon="3.55384">
        <ele>1432</ele>
        <time>2020-01-04T21:30:53Z</time>
      </trkpt>
      <trkpt lat="44.15515" lon="3.55378">
        <ele>1436</ele>
        <time>2020-01-04T21:31:08Z</time>
      </trkpt>
      <trkpt lat="44.15535" lon="3.55383">
        <ele>1436</ele>
        <time>2020-01-04T21:31:13Z</time>
      </trkpt>
      <trkpt lat="44.15531" lon="3.55394">
        <ele>1438</ele>
        <time>2020-01-04T21:31:15Z</time>
      </trkpt>
      <trkpt lat="44.15548" lon="3.55399">
        <ele>1437</ele>
        <time>2020-01-04T21:31:19Z</time>
      </trkpt>
      <trkpt lat="44.15565" lon="3.55414">
        <ele>1436</ele>
        <time>2020-01-04T21:31:24Z</time>
      </trkpt>
      <trkpt lat="44.15571" lon="3.55445">
        <ele>1436</ele>
        <time>2020-01-04T21:31:29Z</time>
      </trkpt>
      <trkpt lat="44.15573" lon="3.55501">
        <ele>1435</ele>
        <time>2020-01-04T21:31:39Z</time>
      </trkpt>
      <trkpt lat="44.15579" lon="3.555">
        <ele>1433</ele>
        <time>2020-01-04T21:31:40Z</time>
      </trkpt>
      <trkpt lat="44.15623" lon="3.55386">
        <ele>1418</ele>
        <time>2020-01-04T21:32:02Z</time>
      </trkpt>
      <trkpt lat="44.15656" lon="3.55273">
        <ele>1406</ele>
        <time>2020-01-04T21:32:22Z</time>
      </trkpt>
      <trkpt lat="44.15664" lon="3.5528">
        <ele>1405</ele>
        <time>2020-01-04T21:32:24Z</time>
      </trkpt>
      <trkpt lat="44.15665" lon="3.55347">
        <ele>1405</ele>
        <time>2020-01-04T21:32:36Z</time>
      </trkpt>
      <trkpt lat="44.15658" lon="3.55446">
        <ele>1400</ele>
        <time>2020-01-04T21:32:52Z</time>
      </trkpt>
      <trkpt lat="44.15665" lon="3.5545">
        <ele>1396</ele>
        <time>2020-01-04T21:32:54Z</time>
      </trkpt>
      <trkpt lat="44.15674" lon="3.55427">
        <ele>1396</ele>
        <time>2020-01-04T21:32:58Z</time>
      </trkpt>
      <trkpt lat="44.15749" lon="3.55332">
        <ele>1381</ele>
        <time>2020-01-04T21:33:22Z</time>
      </trkpt>
      <trkpt lat="44.15753" lon="3.55302">
        <ele>1380</ele>
        <time>2020-01-04T21:33:27Z</time>
      </trkpt>
      <trkpt lat="44.15763" lon="3.55303">
        <ele>1377</ele>
        <time>2020-01-04T21:33:30Z</time>
      </trkpt>
      <trkpt lat="44.15761" lon="3.55404">
        <ele>1372</ele>
        <time>2020-01-04T21:33:47Z</time>
      </trkpt>
      <trkpt lat="44.15753" lon="3.55428">
        <ele>1371</ele>
        <time>2020-01-04T21:33:51Z</time>
      </trkpt>
      <trkpt lat="44.1573" lon="3.55452">
        <ele>1373</ele>
        <time>2020-01-04T21:33:58Z</time>
      </trkpt>
      <trkpt lat="44.15734" lon="3.5546">
        <ele>1370</ele>
        <time>2020-01-04T21:33:59Z</time>
      </trkpt>
      <trkpt lat="44.1579" lon="3.55418">
        <ele>1362</ele>
        <time>2020-01-04T21:34:14Z</time>
      </trkpt>
      <trkpt lat="44.15822" lon="3.55363">
        <ele>1356</ele>
        <time>2020-01-04T21:34:26Z</time>
      </trkpt>
      <trkpt lat="44.15834" lon="3.5532">
        <ele>1354</ele>
        <time>2020-01-04T21:34:34Z</time>
      </trkpt>
      <trkpt lat="44.15844" lon="3.55322">
        <ele>1351</ele>
        <time>2020-01-04T21:34:36Z</time>
      </trkpt>
      <trkpt lat="44.15844" lon="3.55383">
        <ele>1349</ele>
        <time>2020-01-04T21:34:46Z</time>
      </trkpt>
      <trkpt lat="44.15853" lon="3.55438">
        <ele>1343</ele>
        <time>2020-01-04T21:34:56Z</time>
      </trkpt>
      <trkpt lat="44.15849" lon="3.55469">
        <ele>1339</ele>
        <time>2020-01-04T21:35:01Z</time>
      </trkpt>
      <trkpt lat="44.1583" lon="3.55492">
        <ele>1339</ele>
        <time>2020-01-04T21:35:07Z</time>
      </trkpt>
      <trkpt lat="44.15792" lon="3.55497">
        <ele>1347</ele>
        <time>2020-01-04T21:35:16Z</time>
      </trkpt>
      <trkpt lat="44.15792" lon="3.555">
        <ele>1346</ele>
        <time>2020-01-04T21:35:16Z</time>
      </trkpt>
      <trkpt lat="44.15842" lon="3.55518">
        <ele>1332</ele>
        <time>2020-01-04T21:35:28Z</time>
      </trkpt>
      <trkpt lat="44.15885" lon="3.55499">
        <ele>1329</ele>
        <time>2020-01-04T21:35:39Z</time>
      </trkpt>
      <trkpt lat="44.15947" lon="3.55436">
        <ele>1318</ele>
        <time>2020-01-04T21:35:57Z</time>
      </trkpt>
      <trkpt lat="44.15965" lon="3.55385">
        <ele>1314</ele>
        <time>2020-01-04T21:36:06Z</time>
      </trkpt>
      <trkpt lat="44.15968" lon="3.55257">
        <ele>1309</ele>
        <time>2020-01-04T21:36:28Z</time>
      </trkpt>
      <trkpt lat="44.15974" lon="3.55253">
        <ele>1308</ele>
        <time>2020-01-04T21:36:29Z</time>
      </trkpt>
      <trkpt lat="44.15979" lon="3.55258">
        <ele>1307</ele>
        <time>2020-01-04T21:36:31Z</time>
      </trkpt>
      <trkpt lat="44.15987" lon="3.55292">
        <ele>1306</ele>
        <time>2020-01-04T21:36:37Z</time>
      </trkpt>
      <trkpt lat="44.15993" lon="3.55338">
        <ele>1305</ele>
        <time>2020-01-04T21:36:45Z</time>
      </trkpt>
      <trkpt lat="44.16017" lon="3.55393">
        <ele>1295</ele>
        <time>2020-01-04T21:36:55Z</time>
      </trkpt>
      <trkpt lat="44.16022" lon="3.55428">
        <ele>1292</ele>
        <time>2020-01-04T21:37:01Z</time>
      </trkpt>
      <trkpt lat="44.16023" lon="3.55454">
        <ele>1288</ele>
        <time>2020-01-04T21:37:06Z</time>
      </trkpt>
      <trkpt lat="44.16017" lon="3.55478">
        <ele>1288</ele>
        <time>2020-01-04T21:37:10Z</time>
      </trkpt>
      <trkpt lat="44.16006" lon="3.55505">
        <ele>1287</ele>
        <time>2020-01-04T21:37:15Z</time>
      </trkpt>
      <trkpt lat="44.15994" lon="3.55527">
        <ele>1285</ele>
        <time>2020-01-04T21:37:20Z</time>
      </trkpt>
      <trkpt lat="44.15995" lon="3.5554">
        <ele>1280</ele>
        <time>2020-01-04T21:37:22Z</time>
      </trkpt>
      <trkpt lat="44.1603" lon="3.55505">
        <ele>1279</ele>
        <time>2020-01-04T21:37:32Z</time>
      </trkpt>
      <trkpt lat="44.16062" lon="3.55467">
        <ele>1273</ele>
        <time>2020-01-04T21:37:42Z</time>
      </trkpt>
      <trkpt lat="44.16086" lon="3.5542">
        <ele>1270</ele>
        <time>2020-01-04T21:37:52Z</time>
      </trkpt>
      <trkpt lat="44.16089" lon="3.55402">
        <ele>1269</ele>
        <time>2020-01-04T21:37:55Z</time>
      </trkpt>
      <trkpt lat="44.16081" lon="3.55351">
        <ele>1273</ele>
        <time>2020-01-04T21:38:03Z</time>
      </trkpt>
      <trkpt lat="44.16084" lon="3.55302">
        <ele>1275</ele>
        <time>2020-01-04T21:38:12Z</time>
      </trkpt>
      <trkpt lat="44.16093" lon="3.55264">
        <ele>1274</ele>
        <time>2020-01-04T21:38:18Z</time>
      </trkpt>
      <trkpt lat="44.16118" lon="3.5525">
        <ele>1265</ele>
        <time>2020-01-04T21:38:25Z</time>
      </trkpt>
      <trkpt lat="44.16135" lon="3.55231">
        <ele>1258</ele>
        <time>2020-01-04T21:38:30Z</time>
      </trkpt>
      <trkpt lat="44.16181" lon="3.55145">
        <ele>1245</ele>
        <time>2020-01-04T21:38:48Z</time>
      </trkpt>
      <trkpt lat="44.16207" lon="3.55116">
        <ele>1241</ele>
        <time>2020-01-04T21:38:56Z</time>
      </trkpt>
      <trkpt lat="44.16295" lon="3.55062">
        <ele>1224</ele>
        <time>2020-01-04T21:39:18Z</time>
      </trkpt>
      <trkpt lat="44.16318" lon="3.55042">
        <ele>1220</ele>
        <time>2020-01-04T21:39:24Z</time>
      </trkpt>
      <trkpt lat="44.16377" lon="3.54979">
        <ele>1211</ele>
        <time>2020-01-04T21:39:42Z</time>
      </trkpt>
      <trkpt lat="44.16401" lon="3.54969">
        <ele>1207</ele>
        <time>2020-01-04T21:39:48Z</time>
      </trkpt>
      <trkpt lat="44.16415" lon="3.54968">
        <ele>1204</ele>
        <time>2020-01-04T21:39:51Z</time>
      </trkpt>
      <trkpt lat="44.16421" lon="3.54981">
        <ele>1204</ele>
        <time>2020-01-04T21:39:53Z</time>
      </trkpt>
      <trkpt lat="44.16417" lon="3.55003">
        <ele>1204</ele>
        <time>2020-01-04T21:39:57Z</time>
      </trkpt>
      <trkpt lat="44.16396" lon="3.55065">
        <ele>1201</ele>
        <time>2020-01-04T21:40:09Z</time>
      </trkpt>
      <trkpt lat="44.16363" lon="3.55133">
        <ele>1202</ele>
        <time>2020-01-04T21:40:22Z</time>
      </trkpt>
      <trkpt lat="44.16357" lon="3.55158">
        <ele>1201</ele>
        <time>2020-01-04T21:40:27Z</time>
      </trkpt>
      <trkpt lat="44.16357" lon="3.55179">
        <ele>1200</ele>
        <time>2020-01-04T21:40:30Z</time>
      </trkpt>
      <trkpt lat="44.16362" lon="3.55216">
        <ele>1197</ele>
        <time>2020-01-04T21:40:37Z</time>
      </trkpt>
      <trkpt lat="44.16366" lon="3.5522">
        <ele>1197</ele>
        <time>2020-01-04T21:40:38Z</time>
      </trkpt>
      <trkpt lat="44.1638" lon="3.55214">
        <ele>1195</ele>
        <time>2020-01-04T21:40:41Z</time>
      </trkpt>
      <trkpt lat="44.16378" lon="3.55196">
        <ele>1196</ele>
        <time>2020-01-04T21:40:44Z</time>
      </trkpt>
      <trkpt lat="44.16382" lon="3.55147">
        <ele>1197</ele>
        <time>2020-01-04T21:40:53Z</time>
      </trkpt>
      <trkpt lat="44.16416" lon="3.55053">
        <ele>1198</ele>
        <time>2020-01-04T21:41:10Z</time>
      </trkpt>
      <trkpt lat="44.16414" lon="3.55044">
        <ele>1199</ele>
        <time>2020-01-04T21:41:12Z</time>
      </trkpt>
      <trkpt lat="44.16457" lon="3.54955">
        <ele>1201</ele>
        <time>2020-01-04T21:41:30Z</time>
      </trkpt>
      <trkpt lat="44.16461" lon="3.5494">
        <ele>1201</ele>
        <time>2020-01-04T21:41:32Z</time>
      </trkpt>
      <trkpt lat="44.16495" lon="3.54899">
        <ele>1198</ele>
        <time>2020-01-04T21:41:43Z</time>
      </trkpt>
      <trkpt lat="44.16538" lon="3.54861">
        <ele>1195</ele>
        <time>2020-01-04T21:41:55Z</time>
      </trkpt>
      <trkpt lat="44.16575" lon="3.54809">
        <ele>1193</ele>
        <time>2020-01-04T21:42:07Z</time>
      </trkpt>
      <trkpt lat="44.16588" lon="3.54794">
        <ele>1192</ele>
        <time>2020-01-04T21:42:11Z</time>
      </trkpt>
      <trkpt lat="44.16594" lon="3.54792">
        <ele>1192</ele>
        <time>2020-01-04T21:42:12Z</time>
      </trkpt>
      <trkpt lat="44.16598" lon="3.54777">
        <ele>1191</ele>
        <time>2020-01-04T21:42:15Z</time>
      </trkpt>
      <trkpt lat="44.16618" lon="3.54747">
        <ele>1191</ele>
        <time>2020-01-04T21:42:22Z</time>
      </trkpt>
      <trkpt lat="44.16628" lon="3.54738">
        <ele>1191</ele>
        <time>2020-01-04T21:42:25Z</time>
      </trkpt>
      <trkpt lat="44.16639" lon="3.54732">
        <ele>1192</ele>
        <time>2020-01-04T21:42:28Z</time>
      </trkpt>
      <trkpt lat="44.16703" lon="3.54719">
        <ele>1193</ele>
        <time>2020-01-04T21:42:43Z</time>
      </trkpt>
      <trkpt lat="44.16734" lon="3.54702">
        <ele>1193</ele>
        <time>2020-01-04T21:42:50Z</time>
      </trkpt>
      <trkpt lat="44.16762" lon="3.54677">
        <ele>1193</ele>
        <time>2020-01-04T21:42:58Z</time>
      </trkpt>
      <trkpt lat="44.16759" lon="3.5467">
        <ele>1194</ele>
        <time>2020-01-04T21:43:00Z</time>
      </trkpt>
      <trkpt lat="44.16762" lon="3.54677">
        <ele>1193</ele>
        <time>2020-01-04T21:43:01Z</time>
      </trkpt>
      <trkpt lat="44.16734" lon="3.54702">
        <ele>1193</ele>
        <time>2020-01-04T21:43:09Z</time>
      </trkpt>
      <trkpt lat="44.16703" lon="3.54719">
        <ele>1193</ele>
        <time>2020-01-04T21:43:16Z</time>
      </trkpt>
      <trkpt lat="44.16639" lon="3.54732">
        <ele>1192</ele>
        <time>2020-01-04T21:43:32Z</time>
      </trkpt>
      <trkpt lat="44.16628" lon="3.54738">
        <ele>1191</ele>
        <time>2020-01-04T21:43:34Z</time>
      </trkpt>
      <trkpt lat="44.16618" lon="3.54747">
        <ele>1191</ele>
        <time>2020-01-04T21:43:37Z</time>
      </trkpt>
      <trkpt lat="44.16607" lon="3.54762">
        <ele>1191</ele>
        <time>2020-01-04T21:43:41Z</time>
      </trkpt>
      <trkpt lat="44.16598" lon="3.54777">
        <ele>1191</ele>
        <time>2020-01-04T21:43:44Z</time>
      </trkpt>
      <trkpt lat="44.16594" lon="3.54792">
        <ele>1192</ele>
        <time>2020-01-04T21:43:47Z</time>
      </trkpt>
      <trkpt lat="44.16598" lon="3.54777">
        <ele>1191</ele>
        <time>2020-01-04T21:43:49Z</time>
      </trkpt>
      <trkpt lat="44.16607" lon="3.54762">
        <ele>1191</ele>
        <time>2020-01-04T21:43:53Z</time>
      </trkpt>
      <trkpt lat="44.16618" lon="3.54747">
        <ele>1191</ele>
        <time>2020-01-04T21:43:56Z</time>
      </trkpt>
      <trkpt lat="44.16628" lon="3.54738">
        <ele>1191</ele>
        <time>2020-01-04T21:43:59Z</time>
      </trkpt>
      <trkpt lat="44.16639" lon="3.54732">
        <ele>1192</ele>
        <time>2020-01-04T21:44:02Z</time>
      </trkpt>
      <trkpt lat="44.16703" lon="3.54719">
        <ele>1193</ele>
        <time>2020-01-04T21:44:17Z</time>
      </trkpt>
      <trkpt lat="44.16734" lon="3.54702">
        <ele>1193</ele>
        <time>2020-01-04T21:44:25Z</time>
      </trkpt>
      <trkpt lat="44.16764" lon="3.54676">
        <ele>1192</ele>
        <time>2020-01-04T21:44:33Z</time>
      </trkpt>
      <trkpt lat="44.16776" lon="3.54655">
        <ele>1192</ele>
        <time>2020-01-04T21:44:37Z</time>
      </trkpt>
      <trkpt lat="44.16806" lon="3.54588">
        <ele>1194</ele>
        <time>2020-01-04T21:44:51Z</time>
      </trkpt>
      <trkpt lat="44.16819" lon="3.54575">
        <ele>1196</ele>
        <time>2020-01-04T21:44:54Z</time>
      </trkpt>
      <trkpt lat="44.16852" lon="3.54552">
        <ele>1199</ele>
        <time>2020-01-04T21:45:03Z</time>
      </trkpt>
      <trkpt lat="44.16909" lon="3.54532">
        <ele>1202</ele>
        <time>2020-01-04T21:45:17Z</time>
      </trkpt>
      <trkpt lat="44.16939" lon="3.54517">
        <ele>1203</ele>
        <time>2020-01-04T21:45:24Z</time>
      </trkpt>
      <trkpt lat="44.16989" lon="3.54479">
        <ele>1204</ele>
        <time>2020-01-04T21:45:37Z</time>
      </trkpt>
      <trkpt lat="44.17137" lon="3.54337">
        <ele>1208</ele>
        <time>2020-01-04T21:46:19Z</time>
      </trkpt>
      <trkpt lat="44.17206" lon="3.54281">
        <ele>1208</ele>
        <time>2020-01-04T21:46:38Z</time>
      </trkpt>
      <trkpt lat="44.17253" lon="3.54238">
        <ele>1211</ele>
        <time>2020-01-04T21:46:51Z</time>
      </trkpt>
      <trkpt lat="44.1736" lon="3.54161">
        <ele>1217</ele>
        <time>2020-01-04T21:47:19Z</time>
      </trkpt>
      <trkpt lat="44.17424" lon="3.54118">
        <ele>1218</ele>
        <time>2020-01-04T21:47:36Z</time>
      </trkpt>
      <trkpt lat="44.17463" lon="3.54125">
        <ele>1225</ele>
        <time>2020-01-04T21:47:45Z</time>
      </trkpt>
      <trkpt lat="44.17493" lon="3.54105">
        <ele>1228</ele>
        <time>2020-01-04T21:47:53Z</time>
      </trkpt>
      <trkpt lat="44.17508" lon="3.54103">
        <ele>1230</ele>
        <time>2020-01-04T21:47:56Z</time>
      </trkpt>
      <trkpt lat="44.17525" lon="3.54112">
        <ele>1235</ele>
        <time>2020-01-04T21:48:01Z</time>
      </trkpt>
      <trkpt lat="44.17534" lon="3.5411">
        <ele>1236</ele>
        <time>2020-01-04T21:48:03Z</time>
      </trkpt>
      <trkpt lat="44.17557" lon="3.54088">
        <ele>1239</ele>
        <time>2020-01-04T21:48:09Z</time>
      </trkpt>
      <trkpt lat="44.1757" lon="3.54082">
        <ele>1240</ele>
        <time>2020-01-04T21:48:12Z</time>
      </trkpt>
      <trkpt lat="44.17583" lon="3.54071">
        <ele>1242</ele>
        <time>2020-01-04T21:48:16Z</time>
      </trkpt>
      <trkpt lat="44.17605" lon="3.54041">
        <ele>1246</ele>
        <time>2020-01-04T21:48:23Z</time>
      </trkpt>
      <trkpt lat="44.17611" lon="3.54028">
        <ele>1247</ele>
        <time>2020-01-04T21:48:26Z</time>
      </trkpt>
      <trkpt lat="44.17613" lon="3.53981">
        <ele>1246</ele>
        <time>2020-01-04T21:48:34Z</time>
      </trkpt>
      <trkpt lat="44.17618" lon="3.53957">
        <ele>1246</ele>
        <time>2020-01-04T21:48:38Z</time>
      </trkpt>
      <trkpt lat="44.17643" lon="3.53889">
        <ele>1250</ele>
        <time>2020-01-04T21:48:51Z</time>
      </trkpt>
      <trkpt lat="44.17658" lon="3.53858">
        <ele>1252</ele>
        <time>2020-01-04T21:48:57Z</time>
      </trkpt>
      <trkpt lat="44.17671" lon="3.53839">
        <ele>1254</ele>
        <time>2020-01-04T21:49:01Z</time>
      </trkpt>
      <trkpt lat="44.17691" lon="3.53796">
        <ele>1254</ele>
        <time>2020-01-04T21:49:10Z</time>
      </trkpt>
      <trkpt lat="44.1771" lon="3.5377">
        <ele>1256</ele>
        <time>2020-01-04T21:49:16Z</time>
      </trkpt>
      <trkpt lat="44.17723" lon="3.53745">
        <ele>1256</ele>
        <time>2020-01-04T21:49:21Z</time>
      </trkpt>
      <trkpt lat="44.17733" lon="3.53715">
        <ele>1255</ele>
        <time>2020-01-04T21:49:27Z</time>
      </trkpt>
      <trkpt lat="44.17753" lon="3.53683">
        <ele>1258</ele>
        <time>2020-01-04T21:49:34Z</time>
      </trkpt>
      <trkpt lat="44.17776" lon="3.53631">
        <ele>1263</ele>
        <time>2020-01-04T21:49:44Z</time>
      </trkpt>
      <trkpt lat="44.17781" lon="3.53605">
        <ele>1264</ele>
        <time>2020-01-04T21:49:49Z</time>
      </trkpt>
      <trkpt lat="44.17781" lon="3.53575">
        <ele>1263</ele>
        <time>2020-01-04T21:49:54Z</time>
      </trkpt>
      <trkpt lat="44.17776" lon="3.53549">
        <ele>1262</ele>
        <time>2020-01-04T21:49:58Z</time>
      </trkpt>
      <trkpt lat="44.17778" lon="3.53524">
        <ele>1263</ele>
        <time>2020-01-04T21:50:02Z</time>
      </trkpt>
      <trkpt lat="44.17791" lon="3.53468">
        <ele>1263</ele>
        <time>2020-01-04T21:50:12Z</time>
      </trkpt>
      <trkpt lat="44.17802" lon="3.53444">
        <ele>1264</ele>
        <time>2020-01-04T21:50:17Z</time>
      </trkpt>
      <trkpt lat="44.17826" lon="3.53408">
        <ele>1265</ele>
        <time>2020-01-04T21:50:25Z</time>
      </trkpt>
      <trkpt lat="44.17862" lon="3.53361">
        <ele>1262</ele>
        <time>2020-01-04T21:50:37Z</time>
      </trkpt>
      <trkpt lat="44.17905" lon="3.53331">
        <ele>1263</ele>
        <time>2020-01-04T21:50:48Z</time>
      </trkpt>
      <trkpt lat="44.17978" lon="3.53256">
        <ele>1263</ele>
        <time>2020-01-04T21:51:09Z</time>
      </trkpt>
      <trkpt lat="44.18019" lon="3.53221">
        <ele>1264</ele>
        <time>2020-01-04T21:51:20Z</time>
      </trkpt>
      <trkpt lat="44.18051" lon="3.53178">
        <ele>1259</ele>
        <time>2020-01-04T21:51:31Z</time>
      </trkpt>
      <trkpt lat="44.18085" lon="3.53153">
        <ele>1255</ele>
        <time>2020-01-04T21:51:40Z</time>
      </trkpt>
      <trkpt lat="44.18111" lon="3.53122">
        <ele>1251</ele>
        <time>2020-01-04T21:51:48Z</time>
      </trkpt>
      <trkpt lat="44.18133" lon="3.53077">
        <ele>1244</ele>
        <time>2020-01-04T21:51:57Z</time>
      </trkpt>
      <trkpt lat="44.18233" lon="3.52929">
        <ele>1234</ele>
        <time>2020-01-04T21:52:31Z</time>
      </trkpt>
      <trkpt lat="44.18257" lon="3.52884">
        <ele>1232</ele>
        <time>2020-01-04T21:52:40Z</time>
      </trkpt>
      <trkpt lat="44.18274" lon="3.52861">
        <ele>1229</ele>
        <time>2020-01-04T21:52:46Z</time>
      </trkpt>
      <trkpt lat="44.18276" lon="3.52848">
        <ele>1227</ele>
        <time>2020-01-04T21:52:48Z</time>
      </trkpt>
      <trkpt lat="44.18283" lon="3.52829">
        <ele>1226</ele>
        <time>2020-01-04T21:52:52Z</time>
      </trkpt>
      <trkpt lat="44.18311" lon="3.52779">
        <ele>1223</ele>
        <time>2020-01-04T21:53:02Z</time>
      </trkpt>
      <trkpt lat="44.18396" lon="3.52607">
        <ele>1215</ele>
        <time>2020-01-04T21:53:37Z</time>
      </trkpt>
      <trkpt lat="44.18409" lon="3.52584">
        <ele>1216</ele>
        <time>2020-01-04T21:53:42Z</time>
      </trkpt>
      <trkpt lat="44.18431" lon="3.52556">
        <ele>1212</ele>
        <time>2020-01-04T21:53:49Z</time>
      </trkpt>
      <trkpt lat="44.18461" lon="3.52496">
        <ele>1206</ele>
        <time>2020-01-04T21:54:01Z</time>
      </trkpt>
      <trkpt lat="44.18476" lon="3.52479">
        <ele>1204</ele>
        <time>2020-01-04T21:54:06Z</time>
      </trkpt>
      <trkpt lat="44.18499" lon="3.52459">
        <ele>1204</ele>
        <time>2020-01-04T21:54:12Z</time>
      </trkpt>
      <trkpt lat="44.1853" lon="3.52444">
        <ele>1199</ele>
        <time>2020-01-04T21:54:20Z</time>
      </trkpt>
      <trkpt lat="44.1856" lon="3.52437">
        <ele>1195</ele>
        <time>2020-01-04T21:54:27Z</time>
      </trkpt>
      <trkpt lat="44.18561" lon="3.52447">
        <ele>1196</ele>
        <time>2020-01-04T21:54:29Z</time>
      </trkpt>
      <trkpt lat="44.1856" lon="3.52437">
        <ele>1195</ele>
        <time>2020-01-04T21:54:30Z</time>
      </trkpt>
      <trkpt lat="44.18686" lon="3.52389">
        <ele>1174</ele>
        <time>2020-01-04T21:55:01Z</time>
      </trkpt>
      <trkpt lat="44.18813" lon="3.52346">
        <ele>1148</ele>
        <time>2020-01-04T21:55:31Z</time>
      </trkpt>
      <trkpt lat="44.18957" lon="3.52283">
        <ele>1118</ele>
        <time>2020-01-04T21:56:07Z</time>
      </trkpt>
      <trkpt lat="44.19032" lon="3.52219">
        <ele>1100</ele>
        <time>2020-01-04T21:56:27Z</time>
      </trkpt>
      <trkpt lat="44.19055" lon="3.52196">
        <ele>1094</ele>
        <time>2020-01-04T21:56:34Z</time>
      </trkpt>
      <trkpt lat="44.1907" lon="3.52174">
        <ele>1091</ele>
        <time>2020-01-04T21:56:39Z</time>
      </trkpt>
      <trkpt lat="44.19085" lon="3.52161">
        <ele>1087</ele>
        <time>2020-01-04T21:56:43Z</time>
      </trkpt>
      <trkpt lat="44.19105" lon="3.5215">
        <ele>1082</ele>
        <time>2020-01-04T21:56:48Z</time>
      </trkpt>
      <trkpt lat="44.19135" lon="3.52125">
        <ele>1074</ele>
        <time>2020-01-04T21:56:56Z</time>
      </trkpt>
      <trkpt lat="44.1915" lon="3.52116">
        <ele>1071</ele>
        <time>2020-01-04T21:57:00Z</time>
      </trkpt>
      <trkpt lat="44.19165" lon="3.52118">
        <ele>1069</ele>
        <time>2020-01-04T21:57:03Z</time>
      </trkpt>
      <trkpt lat="44.19178" lon="3.52116">
        <ele>1066</ele>
        <time>2020-01-04T21:57:07Z</time>
      </trkpt>
      <trkpt lat="44.19193" lon="3.52105">
        <ele>1063</ele>
        <time>2020-01-04T21:57:10Z</time>
      </trkpt>
      <trkpt lat="44.1921" lon="3.52084">
        <ele>1059</ele>
        <time>2020-01-04T21:57:16Z</time>
      </trkpt>
      <trkpt lat="44.19225" lon="3.52071">
        <ele>1056</ele>
        <time>2020-01-04T21:57:20Z</time>
      </trkpt>
      <trkpt lat="44.19263" lon="3.52054">
        <ele>1048</ele>
        <time>2020-01-04T21:57:29Z</time>
      </trkpt>
      <trkpt lat="44.19296" lon="3.52032">
        <ele>1042</ele>
        <time>2020-01-04T21:57:38Z</time>
      </trkpt>
      <trkpt lat="44.19308" lon="3.52028">
        <ele>1040</ele>
        <time>2020-01-04T21:57:41Z</time>
      </trkpt>
      <trkpt lat="44.19319" lon="3.52032">
        <ele>1038</ele>
        <time>2020-01-04T21:57:43Z</time>
      </trkpt>
      <trkpt lat="44.19328" lon="3.52026">
        <ele>1037</ele>
        <time>2020-01-04T21:57:46Z</time>
      </trkpt>
      <trkpt lat="44.19338" lon="3.52013">
        <ele>1037</ele>
        <time>2020-01-04T21:57:49Z</time>
      </trkpt>
      <trkpt lat="44.19414" lon="3.52015">
        <ele>1034</ele>
        <time>2020-01-04T21:58:07Z</time>
      </trkpt>
      <trkpt lat="44.19463" lon="3.52013">
        <ele>1033</ele>
        <time>2020-01-04T21:58:18Z</time>
      </trkpt>
      <trkpt lat="44.19487" lon="3.52009">
        <ele>1033</ele>
        <time>2020-01-04T21:58:24Z</time>
      </trkpt>
      <trkpt lat="44.19574" lon="3.51977">
        <ele>1042</ele>
        <time>2020-01-04T21:58:45Z</time>
      </trkpt>
      <trkpt lat="44.19617" lon="3.51944">
        <ele>1046</ele>
        <time>2020-01-04T21:58:56Z</time>
      </trkpt>
      <trkpt lat="44.19647" lon="3.5191">
        <ele>1049</ele>
        <time>2020-01-04T21:59:05Z</time>
      </trkpt>
      <trkpt lat="44.19675" lon="3.51861">
        <ele>1048</ele>
        <time>2020-01-04T21:59:16Z</time>
      </trkpt>
      <trkpt lat="44.19679" lon="3.51864">
        <ele>1049</ele>
        <time>2020-01-04T21:59:17Z</time>
      </trkpt>
      <trkpt lat="44.19675" lon="3.51861">
        <ele>1048</ele>
        <time>2020-01-04T21:59:18Z</time>
      </trkpt>
      <trkpt lat="44.19714" lon="3.51736">
        <ele>1047</ele>
        <time>2020-01-04T21:59:41Z</time>
      </trkpt>
      <trkpt lat="44.1972" lon="3.51723">
        <ele>1048</ele>
        <time>2020-01-04T21:59:43Z</time>
      </trkpt>
      <trkpt lat="44.19733" lon="3.51715">
        <ele>1053</ele>
        <time>2020-01-04T21:59:47Z</time>
      </trkpt>
      <trkpt lat="44.19881" lon="3.51653">
        <ele>1053</ele>
        <time>2020-01-04T22:00:23Z</time>
      </trkpt>
      <trkpt lat="44.19948" lon="3.5162">
        <ele>1049</ele>
        <time>2020-01-04T22:00:39Z</time>
      </trkpt>
      <trkpt lat="44.20002" lon="3.51573">
        <ele>1046</ele>
        <time>2020-01-04T22:00:54Z</time>
      </trkpt>
      <trkpt lat="44.20111" lon="3.51457">
        <ele>1039</ele>
        <time>2020-01-04T22:01:26Z</time>
      </trkpt>
      <trkpt lat="44.20122" lon="3.51451">
        <ele>1038</ele>
        <time>2020-01-04T22:01:29Z</time>
      </trkpt>
      <trkpt lat="44.20145" lon="3.51451">
        <ele>1038</ele>
        <time>2020-01-04T22:01:34Z</time>
      </trkpt>
      <trkpt lat="44.20223" lon="3.51477">
        <ele>1039</ele>
        <time>2020-01-04T22:01:53Z</time>
      </trkpt>
      <trkpt lat="44.20246" lon="3.51475">
        <ele>1038</ele>
        <time>2020-01-04T22:01:58Z</time>
      </trkpt>
      <trkpt lat="44.20306" lon="3.51453">
        <ele>1034</ele>
        <time>2020-01-04T22:02:13Z</time>
      </trkpt>
      <trkpt lat="44.20334" lon="3.5146">
        <ele>1034</ele>
        <time>2020-01-04T22:02:19Z</time>
      </trkpt>
      <trkpt lat="44.20381" lon="3.51492">
        <ele>1033</ele>
        <time>2020-01-04T22:02:32Z</time>
      </trkpt>
      <trkpt lat="44.20401" lon="3.51498">
        <ele>1032</ele>
        <time>2020-01-04T22:02:36Z</time>
      </trkpt>
      <trkpt lat="44.20418" lon="3.5149">
        <ele>1031</ele>
        <time>2020-01-04T22:02:41Z</time>
      </trkpt>
      <trkpt lat="44.20448" lon="3.51451">
        <ele>1031</ele>
        <time>2020-01-04T22:02:50Z</time>
      </trkpt>
      <trkpt lat="44.2048" lon="3.51417">
        <ele>1035</ele>
        <time>2020-01-04T22:03:00Z</time>
      </trkpt>
      <trkpt lat="44.20495" lon="3.51397">
        <ele>1036</ele>
        <time>2020-01-04T22:03:04Z</time>
      </trkpt>
      <trkpt lat="44.20523" lon="3.51331">
        <ele>1043</ele>
        <time>2020-01-04T22:03:17Z</time>
      </trkpt>
      <trkpt lat="44.20534" lon="3.51271">
        <ele>1045</ele>
        <time>2020-01-04T22:03:28Z</time>
      </trkpt>
      <trkpt lat="44.20567" lon="3.51166">
        <ele>1047</ele>
        <time>2020-01-04T22:03:47Z</time>
      </trkpt>
      <trkpt lat="44.20575" lon="3.51171">
        <ele>1051</ele>
        <time>2020-01-04T22:03:49Z</time>
      </trkpt>
      <trkpt lat="44.20567" lon="3.51166">
        <ele>1047</ele>
        <time>2020-01-04T22:03:51Z</time>
      </trkpt>
      <trkpt lat="44.20583" lon="3.51123">
        <ele>1047</ele>
        <time>2020-01-04T22:03:59Z</time>
      </trkpt>
      <trkpt lat="44.20609" lon="3.51078">
        <ele>1049</ele>
        <time>2020-01-04T22:04:09Z</time>
      </trkpt>
      <trkpt lat="44.2063" lon="3.51052">
        <ele>1050</ele>
        <time>2020-01-04T22:04:15Z</time>
      </trkpt>
      <trkpt lat="44.20658" lon="3.51041">
        <ele>1055</ele>
        <time>2020-01-04T22:04:22Z</time>
      </trkpt>
      <trkpt lat="44.20692" lon="3.51037">
        <ele>1060</ele>
        <time>2020-01-04T22:04:30Z</time>
      </trkpt>
      <trkpt lat="44.20746" lon="3.51022">
        <ele>1066</ele>
        <time>2020-01-04T22:04:43Z</time>
      </trkpt>
      <trkpt lat="44.20817" lon="3.50962">
        <ele>1070</ele>
        <time>2020-01-04T22:05:02Z</time>
      </trkpt>
      <trkpt lat="44.20834" lon="3.50957">
        <ele>1071</ele>
        <time>2020-01-04T22:05:06Z</time>
      </trkpt>
      <trkpt lat="44.2089" lon="3.50908">
        <ele>1068</ele>
        <time>2020-01-04T22:05:22Z</time>
      </trkpt>
      <trkpt lat="44.21001" lon="3.5079">
        <ele>1065</ele>
        <time>2020-01-04T22:05:54Z</time>
      </trkpt>
      <trkpt lat="44.21029" lon="3.50764">
        <ele>1065</ele>
        <time>2020-01-04T22:06:02Z</time>
      </trkpt>
      <trkpt lat="44.21137" lon="3.50698">
        <ele>1069</ele>
        <time>2020-01-04T22:06:30Z</time>
      </trkpt>
      <trkpt lat="44.21147" lon="3.50702">
        <ele>1069</ele>
        <time>2020-01-04T22:06:32Z</time>
      </trkpt>
      <trkpt lat="44.21177" lon="3.50736">
        <ele>1070</ele>
        <time>2020-01-04T22:06:41Z</time>
      </trkpt>
      <trkpt lat="44.21295" lon="3.50796">
        <ele>1078</ele>
        <time>2020-01-04T22:07:11Z</time>
      </trkpt>
      <trkpt lat="44.21317" lon="3.50831">
        <ele>1077</ele>
        <time>2020-01-04T22:07:18Z</time>
      </trkpt>
      <trkpt lat="44.21332" lon="3.50863">
        <ele>1076</ele>
        <time>2020-01-04T22:07:25Z</time>
      </trkpt>
      <trkpt lat="44.21349" lon="3.50884">
        <ele>1076</ele>
        <time>2020-01-04T22:07:30Z</time>
      </trkpt>
      <trkpt lat="44.21379" lon="3.50897">
        <ele>1078</ele>
        <time>2020-01-04T22:07:37Z</time>
      </trkpt>
      <trkpt lat="44.21407" lon="3.50897">
        <ele>1081</ele>
        <time>2020-01-04T22:07:44Z</time>
      </trkpt>
      <trkpt lat="44.21424" lon="3.50904">
        <ele>1082</ele>
        <time>2020-01-04T22:07:48Z</time>
      </trkpt>
      <trkpt lat="44.21463" lon="3.50938">
        <ele>1082</ele>
        <time>2020-01-04T22:07:59Z</time>
      </trkpt>
      <trkpt lat="44.21491" lon="3.5097">
        <ele>1083</ele>
        <time>2020-01-04T22:08:07Z</time>
      </trkpt>
      <trkpt lat="44.21615" lon="3.51215">
        <ele>1085</ele>
        <time>2020-01-04T22:08:57Z</time>
      </trkpt>
      <trkpt lat="44.21637" lon="3.51243">
        <ele>1085</ele>
        <time>2020-01-04T22:09:04Z</time>
      </trkpt>
      <trkpt lat="44.21774" lon="3.5135">
        <ele>1085</ele>
        <time>2020-01-04T22:09:41Z</time>
      </trkpt>
      <trkpt lat="44.21821" lon="3.51402">
        <ele>1085</ele>
        <time>2020-01-04T22:09:55Z</time>
      </trkpt>
      <trkpt lat="44.21845" lon="3.51425">
        <ele>1085</ele>
        <time>2020-01-04T22:10:02Z</time>
      </trkpt>
      <trkpt lat="44.21858" lon="3.51434">
        <ele>1085</ele>
        <time>2020-01-04T22:10:05Z</time>
      </trkpt>
      <trkpt lat="44.21875" lon="3.51438">
        <ele>1085</ele>
        <time>2020-01-04T22:10:09Z</time>
      </trkpt>
      <trkpt lat="44.21928" lon="3.51438">
        <ele>1083</ele>
        <time>2020-01-04T22:10:22Z</time>
      </trkpt>
      <trkpt lat="44.21984" lon="3.51449">
        <ele>1082</ele>
        <time>2020-01-04T22:10:35Z</time>
      </trkpt>
      <trkpt lat="44.22038" lon="3.51464">
        <ele>1082</ele>
        <time>2020-01-04T22:10:48Z</time>
      </trkpt>
      <trkpt lat="44.22076" lon="3.5147">
        <ele>1081</ele>
        <time>2020-01-04T22:10:57Z</time>
      </trkpt>
      <trkpt lat="44.22087" lon="3.5146">
        <ele>1080</ele>
        <time>2020-01-04T22:11:00Z</time>
      </trkpt>
      <trkpt lat="44.22115" lon="3.51447">
        <ele>1078</ele>
        <time>2020-01-04T22:11:07Z</time>
      </trkpt>
      <trkpt lat="44.2213" lon="3.51447">
        <ele>1077</ele>
        <time>2020-01-04T22:11:10Z</time>
      </trkpt>
      <trkpt lat="44.2223" lon="3.51463">
        <ele>1072</ele>
        <time>2020-01-04T22:11:34Z</time>
      </trkpt>
      <trkpt lat="44.22284" lon="3.51461">
        <ele>1069</ele>
        <time>2020-01-04T22:11:46Z</time>
      </trkpt>
      <trkpt lat="44.22318" lon="3.51455">
        <ele>1068</ele>
        <time>2020-01-04T22:11:54Z</time>
      </trkpt>
      <trkpt lat="44.22353" lon="3.51434">
        <ele>1068</ele>
        <time>2020-01-04T22:12:03Z</time>
      </trkpt>
      <trkpt lat="44.2238" lon="3.5141">
        <ele>1069</ele>
        <time>2020-01-04T22:12:11Z</time>
      </trkpt>
      <trkpt lat="44.22438" lon="3.51391">
        <ele>1072</ele>
        <time>2020-01-04T22:12:25Z</time>
      </trkpt>
      <trkpt lat="44.22493" lon="3.51377">
        <ele>1075</ele>
        <time>2020-01-04T22:12:38Z</time>
      </trkpt>
    </trkseg>
  </trk>
</gpx>